createdAt,value
2022-08-05T00:00:00.942Z,2.70
2022-08-05T00:02:29.001Z,3.67
2022-08-05T00:04:57.637Z,3.35
2022-08-05T00:07:58.955Z,2.78
2022-08-05T00:10:14.416Z,3.10
2022-08-05T00:12:48.535Z,2.90
2022-08-05T00:15:55.227Z,2.40
2022-08-05T00:18:21.600Z,2.80
2022-08-05T00:20:50.849Z,2.40
2022-08-05T00:23:44.536Z,2.40
2022-08-05T00:26:07.595Z,2.40
2022-08-05T00:28:37.941Z,2.50
2022-08-05T00:31:09.173Z,2.25
2022-08-05T00:34:56.203Z,2.20
2022-08-05T00:37:11.629Z,2.40
2022-08-05T00:39:15.843Z,2.70
2022-08-05T00:41:55.010Z,2.60
2022-08-05T00:44:30.725Z,2.50
2022-08-05T00:47:02.103Z,2.50
2022-08-05T00:49:51.002Z,2.50
2022-08-05T00:52:28.781Z,2.50
2022-08-05T00:54:57.169Z,3.00
2022-08-05T00:57:31.792Z,2.30
2022-08-05T01:00:15.306Z,2.13
2022-08-05T01:02:46.405Z,2.00
2022-08-05T01:05:18.164Z,2.10
2022-08-05T01:08:41.990Z,2.10
2022-08-05T01:10:39.332Z,2.23
2022-08-05T01:13:19.396Z,1.90
2022-08-05T01:15:57.613Z,1.90
2022-08-05T01:18:32.698Z,2.10
2022-08-05T01:21:12.367Z,2.20
2022-08-05T01:24:13.432Z,2.00
2022-08-05T01:26:56.545Z,1.92
2022-08-05T01:29:32.684Z,2.10
2022-08-05T01:32:07.386Z,2.30
2022-08-05T01:34:46.838Z,2.10
2022-08-05T01:37:24.994Z,2.40
2022-08-05T01:39:58.805Z,2.10
2022-08-05T01:42:28.851Z,2.38
2022-08-05T01:45:02.274Z,2.28
2022-08-05T01:47:39.322Z,2.40
2022-08-05T01:50:15.617Z,2.60
2022-08-05T01:52:45.377Z,2.60
2022-08-05T01:55:21.404Z,2.88
2022-08-05T01:58:09.563Z,2.13
2022-08-05T02:00:45.284Z,2.90
2022-08-05T02:03:29.267Z,2.90
2022-08-05T02:06:03.669Z,2.40
2022-08-05T02:08:58.382Z,2.38
2022-08-05T02:11:33.515Z,2.40
2022-08-05T02:14:06.774Z,2.20
2022-08-05T02:16:52.922Z,2.28
2022-08-05T02:19:34.401Z,2.08
2022-08-05T02:22:10.802Z,2.40
2022-08-05T02:25:00.036Z,2.35
2022-08-05T02:27:59.482Z,2.10
2022-08-05T02:30:19.509Z,2.47
2022-08-05T02:32:52.255Z,2.70
2022-08-05T02:35:27.922Z,2.75
2022-08-05T02:38:00.107Z,2.38
2022-08-05T02:40:28.770Z,2.10
2022-08-05T02:42:57.881Z,2.40
2022-08-05T02:45:28.549Z,2.80
2022-08-05T02:48:18.132Z,2.20
2022-08-05T02:50:50.396Z,2.10
2022-08-05T02:53:20.795Z,2.60
2022-08-05T02:55:54.169Z,2.10
2022-08-05T02:58:26.799Z,2.35
2022-08-05T03:00:57.033Z,2.40
2022-08-05T03:03:33.879Z,2.47
2022-08-05T03:06:55.220Z,2.17
2022-08-05T03:08:54.137Z,1.90
2022-08-05T03:11:54.488Z,1.80
2022-08-05T03:14:13.664Z,1.95
2022-08-05T03:16:42.146Z,2.20
2022-08-05T03:19:12.669Z,2.00
2022-08-05T03:21:48.856Z,1.70
2022-08-05T03:24:29.280Z,2.00
2022-08-05T03:26:58.736Z,2.00
2022-08-05T03:29:46.002Z,1.90
2022-08-05T03:32:16.299Z,1.70
2022-08-05T03:34:51.314Z,1.70
2022-08-05T03:37:20.545Z,1.77
2022-08-05T03:39:58.689Z,2.25
2022-08-05T03:42:28.931Z,1.70
2022-08-05T03:44:57.276Z,1.80
2022-08-05T03:47:25.525Z,1.50
2022-08-05T03:50:00.229Z,1.88
2022-08-05T03:52:48.368Z,1.60
2022-08-05T03:56:03.759Z,1.75
2022-08-05T03:58:20.147Z,1.65
2022-08-05T04:00:58.078Z,1.50
2022-08-05T04:03:29.769Z,1.75
2022-08-05T04:05:59.837Z,1.80
2022-08-05T04:08:36.745Z,1.48
2022-08-05T04:11:07.471Z,1.92
2022-08-05T04:13:50.085Z,1.80
2022-08-05T04:16:24.275Z,1.58
2022-08-05T04:18:54.756Z,1.38
2022-08-05T04:22:09.469Z,2.00
2022-08-05T04:24:19.654Z,1.80
2022-08-05T04:26:50.925Z,1.70
2022-08-05T04:29:19.669Z,1.40
2022-08-05T04:31:48.416Z,1.45
2022-08-05T04:34:32.614Z,1.50
2022-08-05T04:37:04.138Z,1.58
2022-08-05T04:39:35.258Z,1.40
2022-08-05T04:42:03.855Z,1.40
2022-08-05T04:44:31.856Z,1.57
2022-08-05T04:47:08.939Z,1.50
2022-08-05T04:50:02.450Z,1.50
2022-08-05T04:52:28.213Z,1.70
2022-08-05T04:54:57.256Z,1.75
2022-08-05T04:57:28.914Z,1.40
2022-08-05T04:59:58.483Z,2.28
2022-08-05T05:02:36.541Z,1.50
2022-08-05T05:05:26.564Z,1.85
2022-08-05T05:08:02.511Z,1.40
2022-08-05T05:10:33.089Z,2.20
2022-08-05T05:13:04.367Z,1.50
2022-08-05T05:15:57.268Z,1.50
2022-08-05T05:18:31.354Z,1.70
2022-08-05T05:21:03.088Z,1.65
2022-08-05T05:23:39.374Z,1.27
2022-08-05T05:26:28.153Z,1.50
2022-08-05T05:29:01.049Z,1.50
2022-08-05T05:34:02.805Z,1.38
2022-08-05T05:36:31.694Z,1.50
2022-08-05T05:39:03.603Z,1.58
2022-08-05T05:41:40.668Z,1.60
2022-08-05T05:44:37.036Z,1.40
2022-08-05T05:46:58.324Z,1.60
2022-08-05T05:49:30.348Z,1.30
2022-08-05T05:52:01.198Z,1.30
2022-08-05T05:54:51.018Z,1.40
2022-08-05T05:57:19.885Z,1.50
2022-08-05T05:59:48.870Z,1.80
2022-08-05T06:02:32.654Z,1.45
2022-08-05T06:05:10.185Z,1.27
2022-08-05T06:07:57.531Z,1.30
2022-08-05T06:10:34.521Z,1.50
2022-08-05T06:13:05.904Z,1.20
2022-08-05T06:16:29.447Z,1.20
2022-08-05T06:18:22.051Z,1.27
2022-08-05T06:20:59.542Z,1.55
2022-08-05T06:23:27.533Z,1.17
2022-08-05T06:26:21.447Z,1.13
2022-08-05T06:28:52.208Z,1.00
2022-08-05T06:31:21.929Z,1.40
2022-08-05T06:34:07.591Z,1.10
2022-08-05T06:36:53.691Z,1.00
2022-08-05T06:39:27.243Z,1.10
2022-08-05T06:41:58.964Z,1.20
2022-08-05T06:44:27.363Z,1.20
2022-08-05T06:46:55.510Z,1.00
2022-08-05T06:50:01.676Z,1.15
2022-08-05T06:52:37.690Z,1.10
2022-08-05T06:55:01.045Z,1.05
2022-08-05T06:57:57.131Z,1.10
2022-08-05T07:00:22.307Z,1.30
2022-08-05T07:02:53.778Z,1.13
2022-08-05T07:05:37.406Z,0.90
2022-08-05T07:08:10.655Z,1.20
2022-08-05T07:10:52.513Z,1.00
2022-08-05T07:13:57.864Z,0.88
2022-08-05T07:18:00.542Z,1.02
2022-08-05T07:20:31.523Z,0.90
2022-08-05T07:22:28.154Z,0.90
2022-08-05T07:24:59.200Z,0.80
2022-08-05T07:27:27.698Z,0.82
2022-08-05T07:30:22.275Z,0.80
2022-08-05T07:32:58.617Z,0.70
2022-08-05T07:36:04.202Z,1.00
2022-08-05T07:38:32.322Z,0.80
2022-08-05T07:42:08.442Z,0.90
2022-08-05T07:43:56.105Z,1.05
2022-08-05T07:46:26.867Z,0.82
2022-08-05T07:49:02.656Z,0.90
2022-08-05T07:51:36.685Z,0.80
2022-08-05T07:54:08.386Z,0.75
2022-08-05T07:57:01.506Z,0.70
2022-08-05T07:59:39.037Z,0.70
2022-08-05T08:02:16.028Z,0.70
2022-08-05T08:04:47.288Z,0.80
2022-08-05T08:07:15.706Z,0.90
2022-08-05T08:09:44.341Z,1.40
2022-08-05T08:12:37.447Z,1.10
2022-08-05T08:15:03.323Z,0.80
2022-08-05T08:17:33.250Z,1.00
2022-08-05T08:20:43.642Z,1.00
2022-08-05T08:22:55.836Z,0.90
2022-08-05T08:25:34.586Z,0.90
2022-08-05T08:28:18.948Z,1.30
2022-08-05T08:31:01.245Z,1.00
2022-08-05T08:33:30.533Z,1.05
2022-08-05T08:36:29.615Z,1.48
2022-08-05T08:38:57.098Z,1.08
2022-08-05T08:41:50.775Z,1.10
2022-08-05T08:45:19.238Z,1.00
2022-08-05T08:47:22.180Z,1.40
2022-08-05T08:50:23.369Z,0.80
2022-08-05T08:52:51.639Z,1.00
2022-08-05T08:55:31.916Z,0.88
2022-08-05T08:58:10.716Z,1.00
2022-08-05T09:00:42.249Z,0.93
2022-08-05T09:03:11.407Z,0.88
2022-08-05T09:06:08.543Z,0.80
2022-08-05T09:08:30.282Z,0.80
2022-08-05T09:10:58.588Z,0.90
2022-08-05T09:13:31.495Z,0.80
2022-08-05T09:16:14.521Z,0.90
2022-08-05T09:18:45.349Z,0.97
2022-08-05T09:22:13.507Z,0.73
2022-08-05T09:24:08.694Z,0.85
2022-08-05T09:26:38.345Z,0.77
2022-08-05T09:29:19.106Z,0.70
2022-08-05T09:32:42.979Z,0.80
2022-08-05T09:34:52.520Z,0.70
2022-08-05T09:38:16.512Z,0.90
2022-08-05T09:40:30.872Z,0.70
2022-08-05T09:43:01.217Z,0.80
2022-08-05T09:46:06.464Z,1.00
2022-08-05T09:48:30.326Z,0.60
2022-08-05T09:51:00.706Z,0.60
2022-08-05T09:53:54.395Z,0.80
2022-08-05T09:56:27.146Z,0.80
2022-08-05T09:59:04.238Z,1.30
2022-08-05T10:01:35.104Z,0.85
2022-08-05T10:04:10.471Z,0.70
2022-08-05T10:06:40.449Z,0.60
2022-08-05T10:09:27.361Z,0.70
2022-08-05T10:12:31.080Z,0.80
2022-08-05T10:15:16.997Z,0.70
2022-08-05T10:18:10.992Z,0.60
2022-08-05T10:20:48.039Z,0.70
2022-08-05T10:23:21.910Z,0.60
2022-08-05T10:26:14.303Z,0.70
2022-08-05T10:28:44.034Z,0.60
2022-08-05T10:32:50.845Z,0.70
2022-08-05T10:34:02.345Z,0.70
2022-08-05T10:36:31.493Z,0.70
2022-08-05T10:39:05.252Z,0.70
2022-08-05T10:41:48.375Z,0.70
2022-08-05T10:44:19.839Z,0.70
2022-08-05T10:46:54.051Z,0.80
2022-08-05T10:49:26.960Z,0.80
2022-08-05T10:52:00.363Z,0.90
2022-08-05T10:54:56.094Z,0.60
2022-08-05T10:57:31.678Z,0.70
2022-08-05T11:00:18.490Z,0.70
2022-08-05T11:03:23.762Z,0.80
2022-08-05T11:06:15.088Z,0.70
2022-08-05T11:09:13.198Z,0.70
2022-08-05T11:11:53.552Z,0.70
2022-08-05T11:14:57.710Z,0.60
2022-08-05T11:17:59.953Z,0.70
2022-08-05T11:20:37.577Z,0.70
2022-08-05T11:24:04.750Z,0.80
2022-08-05T11:26:28.075Z,0.60
2022-08-05T11:29:12.102Z,0.60
2022-08-05T11:31:58.419Z,0.60
2022-08-05T11:34:50.918Z,0.70
2022-08-05T11:38:30.245Z,0.73
2022-08-05T11:41:13.956Z,0.60
2022-08-05T11:44:05.215Z,0.70
2022-08-05T11:47:09.176Z,0.60
2022-08-05T11:49:27.648Z,0.70
2022-08-05T11:51:57.681Z,0.50
2022-08-05T11:54:32.935Z,0.73
2022-08-05T11:57:08.607Z,0.70
2022-08-05T11:59:54.189Z,0.70
2022-08-05T12:02:33.101Z,0.60
2022-08-05T12:05:06.870Z,0.60
2022-08-05T12:08:08.620Z,0.60
2022-08-05T12:10:42.969Z,0.70
2022-08-05T12:13:16.381Z,0.80
2022-08-05T12:15:45.284Z,0.68
2022-08-05T12:18:20.563Z,0.70
2022-08-05T12:20:50.145Z,0.80
2022-08-05T12:23:18.141Z,0.60
2022-08-05T12:25:53.812Z,0.60
2022-08-05T12:28:35.295Z,0.70
2022-08-05T12:31:05.437Z,0.70
2022-08-05T12:33:36.274Z,0.60
2022-08-05T12:36:08.505Z,0.73
2022-08-05T12:38:39.636Z,0.60
2022-08-05T12:41:13.910Z,0.70
2022-08-05T12:43:53.614Z,0.80
2022-08-05T12:46:28.840Z,0.60
2022-08-05T12:49:05.718Z,0.60
2022-08-05T12:52:13.648Z,0.60
2022-08-05T12:54:41.095Z,0.60
2022-08-05T12:57:13.371Z,0.90
2022-08-05T13:01:56.851Z,0.77
2022-08-05T13:02:37.306Z,0.90
2022-08-05T13:05:12.594Z,0.90
2022-08-05T13:08:01.634Z,0.60
2022-08-05T13:10:33.250Z,0.77
2022-08-05T13:13:02.709Z,0.80
2022-08-05T13:15:41.494Z,0.68
2022-08-05T13:18:20.218Z,0.80
2022-08-05T13:20:50.260Z,0.70
2022-08-05T13:23:22.495Z,0.60
2022-08-05T13:25:51.998Z,0.60
2022-08-05T13:28:27.898Z,0.60
2022-08-05T13:30:57.084Z,0.60
2022-08-05T13:34:21.583Z,0.70
2022-08-05T13:36:14.359Z,0.50
2022-08-05T13:38:43.993Z,0.60
2022-08-05T13:41:20.058Z,0.80
2022-08-05T13:43:54.594Z,0.75
2022-08-05T13:46:50.805Z,0.90
2022-08-05T13:49:12.723Z,0.70
2022-08-05T13:51:46.425Z,0.70
2022-08-05T13:54:21.118Z,0.70
2022-08-05T13:56:53.357Z,0.70
2022-08-05T13:59:25.078Z,0.65
2022-08-05T14:01:59.175Z,0.70
2022-08-05T14:04:49.980Z,0.90
2022-08-05T14:07:25.592Z,0.80
2022-08-05T14:10:18.445Z,1.00
2022-08-05T14:12:48.771Z,0.90
2022-08-05T14:16:05.386Z,0.87
2022-08-05T14:18:06.234Z,0.90
2022-08-05T14:20:43.233Z,1.10
2022-08-05T14:23:25.177Z,0.90
2022-08-05T14:25:58.967Z,0.90
2022-08-05T14:28:28.670Z,0.80
2022-08-05T14:30:56.980Z,0.80
2022-08-05T14:33:24.880Z,0.60
2022-08-05T14:35:54.247Z,1.10
2022-08-05T14:38:33.241Z,1.02
2022-08-05T14:41:07.855Z,0.80
2022-08-05T14:43:59.160Z,1.00
2022-08-05T14:46:28.852Z,0.80
2022-08-05T14:49:03.434Z,0.95
2022-08-05T14:51:36.225Z,0.80
2022-08-05T14:54:26.498Z,0.90
2022-08-05T14:56:55.420Z,0.90
2022-08-05T14:59:23.637Z,0.90
2022-08-05T15:01:51.673Z,1.10
2022-08-05T15:04:23.143Z,1.00
2022-08-05T15:06:55.433Z,1.10
2022-08-05T15:09:51.305Z,0.90
2022-08-05T15:12:16.768Z,0.80
2022-08-05T15:14:50.236Z,1.08
2022-08-05T15:17:45.896Z,1.05
2022-08-05T15:20:17.027Z,0.80
2022-08-05T15:22:54.249Z,0.70
2022-08-05T15:25:50.982Z,1.00
2022-08-05T15:28:14.718Z,1.20
2022-08-05T15:30:43.266Z,0.80
2022-08-05T15:33:12.255Z,1.00
2022-08-05T15:36:03.662Z,0.90
2022-08-05T15:38:36.002Z,0.90
2022-08-05T15:41:21.320Z,0.80
2022-08-05T15:43:54.816Z,1.00
2022-08-05T15:46:24.792Z,1.00
2022-08-05T15:49:01.168Z,1.10
2022-08-05T15:52:03.684Z,0.90
2022-08-05T15:54:34.920Z,0.90
2022-08-05T15:57:08.017Z,1.30
2022-08-05T15:59:38.230Z,1.60
2022-08-05T16:02:14.503Z,1.10
2022-08-05T16:04:46.490Z,1.10
2022-08-05T16:07:14.937Z,1.00
2022-08-05T16:09:43.580Z,1.20
2022-08-05T16:12:12.236Z,0.90
2022-08-05T16:14:42.707Z,1.10
2022-08-05T16:17:12.931Z,1.10
2022-08-05T16:20:05.264Z,0.90
2022-08-05T16:22:33.996Z,1.00
2022-08-05T16:25:08.000Z,0.90
2022-08-05T16:27:47.335Z,1.00
2022-08-05T16:30:29.084Z,0.90
2022-08-05T16:32:57.648Z,0.98
2022-08-05T16:35:28.625Z,1.00
2022-08-05T16:38:15.304Z,1.30
2022-08-05T16:40:52.289Z,1.05
2022-08-05T16:43:24.373Z,1.38
2022-08-05T16:46:04.094Z,1.10
2022-08-05T16:48:38.913Z,0.93
2022-08-05T16:51:09.719Z,0.80
2022-08-05T16:54:03.188Z,1.30
2022-08-05T16:56:29.517Z,1.00
2022-08-05T16:58:58.053Z,1.30
2022-08-05T17:01:27.505Z,1.30
2022-08-05T17:04:15.382Z,1.10
2022-08-05T17:06:43.732Z,1.27
2022-08-05T17:09:21.145Z,1.30
2022-08-05T17:11:55.906Z,1.40
2022-08-05T17:14:37.121Z,1.10
2022-08-05T17:17:15.171Z,1.00
2022-08-05T17:19:45.430Z,1.02
2022-08-05T17:22:24.672Z,1.27
2022-08-05T17:24:57.968Z,1.17
2022-08-05T17:27:33.569Z,1.30
2022-08-05T17:30:03.180Z,1.40
2022-08-05T17:32:34.577Z,1.50
2022-08-05T17:35:03.980Z,1.40
2022-08-05T17:37:41.791Z,1.40
2022-08-05T17:40:15.251Z,1.50
2022-08-05T17:42:50.876Z,1.40
2022-08-05T17:45:21.886Z,1.20
2022-08-05T17:47:55.442Z,1.60
2022-08-05T17:50:28.475Z,1.70
2022-08-05T17:52:59.106Z,1.90
2022-08-05T17:55:34.324Z,1.52
2022-08-05T17:58:09.927Z,1.40
2022-08-05T18:00:40.874Z,1.40
2022-08-05T18:03:39.360Z,1.50
2022-08-05T18:06:10.978Z,1.38
2022-08-05T18:08:45.003Z,1.30
2022-08-05T18:11:24.603Z,1.42
2022-08-05T18:14:04.359Z,1.40
2022-08-05T18:16:33.808Z,1.30
2022-08-05T18:19:08.819Z,1.52
2022-08-05T18:22:07.001Z,1.30
2022-08-05T18:24:27.821Z,1.15
2022-08-05T18:26:56.562Z,1.00
2022-08-05T18:29:40.426Z,1.30
2022-08-05T18:32:12.943Z,1.23
2022-08-05T18:34:42.937Z,1.30
2022-08-05T18:37:12.390Z,1.20
2022-08-05T18:40:34.477Z,1.20
2022-08-05T18:42:38.402Z,1.23
2022-08-05T18:45:08.128Z,1.50
2022-08-05T18:47:40.440Z,1.10
2022-08-05T18:50:45.348Z,1.40
2022-08-05T18:53:20.674Z,1.50
2022-08-05T18:55:56.220Z,1.40
2022-08-05T18:58:27.122Z,1.65
2022-08-05T19:00:57.211Z,1.40
2022-08-05T19:03:53.052Z,1.38
2022-08-05T19:06:21.542Z,1.48
2022-08-05T19:08:53.216Z,1.55
2022-08-05T19:11:28.438Z,1.25
2022-08-05T19:14:00.746Z,1.55
2022-08-05T19:16:36.677Z,1.50
2022-08-05T19:19:20.993Z,1.50
2022-08-05T19:21:53.164Z,1.38
2022-08-05T19:24:34.901Z,1.73
2022-08-05T19:27:08.126Z,1.30
2022-08-05T19:29:41.356Z,1.63
2022-08-05T19:32:11.690Z,1.40
2022-08-05T19:34:39.971Z,1.40
2022-08-05T19:37:11.670Z,1.35
2022-08-05T19:39:45.537Z,1.48
2022-08-05T19:42:35.711Z,1.30
2022-08-05T19:45:06.041Z,1.40
2022-08-05T19:47:34.929Z,1.38
2022-08-05T19:50:07.732Z,1.50
2022-08-05T19:52:47.737Z,1.48
2022-08-05T19:56:12.407Z,1.40
2022-08-05T19:58:29.231Z,1.40
2022-08-05T20:00:54.312Z,1.50
2022-08-05T20:03:22.320Z,1.50
2022-08-05T20:05:51.616Z,1.27
2022-08-05T20:08:24.499Z,1.33
2022-08-05T20:10:54.051Z,1.20
2022-08-05T20:13:29.954Z,1.60
2022-08-05T20:16:10.990Z,1.80
2022-08-05T20:18:40.776Z,1.33
2022-08-05T20:21:09.359Z,1.10
2022-08-05T20:23:50.820Z,1.70
2022-08-05T20:26:20.582Z,1.50
2022-08-05T20:28:50.854Z,1.50
2022-08-05T20:31:21.676Z,1.20
2022-08-05T20:33:51.140Z,1.13
2022-08-05T20:36:20.604Z,1.48
2022-08-05T20:38:53.501Z,1.30
2022-08-05T20:41:26.826Z,1.27
2022-08-05T20:43:58.987Z,1.60
2022-08-05T20:46:30.015Z,1.40
2022-08-05T20:48:58.063Z,1.33
2022-08-05T20:51:29.616Z,1.42
2022-08-05T20:54:04.024Z,1.30
2022-08-05T20:56:40.172Z,1.20
2022-08-05T20:59:19.298Z,1.63
2022-08-05T21:01:57.844Z,1.35
2022-08-05T21:04:27.288Z,1.60
2022-08-05T21:06:55.777Z,1.20
2022-08-05T21:09:25.212Z,1.40
2022-08-05T21:12:09.258Z,1.70
2022-08-05T21:14:39.624Z,1.50
2022-08-05T21:17:07.687Z,1.50
2022-08-05T21:19:47.582Z,1.10
2022-08-05T21:22:23.339Z,1.40
2022-08-05T21:24:54.913Z,1.70
2022-08-05T21:27:25.507Z,1.35
2022-08-05T21:29:56.181Z,1.60
2022-08-05T21:32:26.584Z,1.70
2022-08-05T21:34:55.826Z,1.40
2022-08-05T21:37:41.292Z,1.80
2022-08-05T21:40:14.037Z,2.38
2022-08-05T21:42:45.193Z,1.80
2022-08-05T21:45:24.146Z,2.10
2022-08-05T21:47:56.230Z,1.50
2022-08-05T21:50:25.927Z,1.42
2022-08-05T21:52:58.864Z,1.50
2022-08-05T21:56:01.397Z,1.40
2022-08-05T21:58:28.837Z,1.60
2022-08-05T22:01:00.749Z,3.53
2022-08-05T22:03:52.405Z,2.80
2022-08-05T22:06:22.737Z,1.80
2022-08-05T22:09:13.177Z,1.60
2022-08-05T22:11:42.974Z,1.77
2022-08-05T22:14:35.857Z,1.80
2022-08-05T22:17:05.093Z,1.35
2022-08-05T22:20:03.522Z,1.40
2022-08-05T22:22:28.105Z,1.70
2022-08-05T22:25:21.170Z,1.80
2022-08-05T22:28:09.658Z,1.40
2022-08-05T22:30:55.859Z,1.63
2022-08-05T22:33:56.705Z,1.30
2022-08-05T22:36:15.207Z,1.60
2022-08-05T22:38:48.669Z,1.55
2022-08-05T22:42:04.446Z,1.50
2022-08-05T22:44:08.193Z,1.50
2022-08-05T22:46:40.004Z,2.55
2022-08-05T22:49:23.643Z,1.80
2022-08-05T22:52:06.400Z,1.73
2022-08-05T22:54:36.719Z,1.60
2022-08-05T22:57:05.544Z,1.75
2022-08-05T22:59:48.365Z,1.60
2022-08-05T23:02:29.256Z,1.60
2022-08-05T23:05:02.118Z,1.42
2022-08-05T23:07:43.761Z,1.50
2022-08-05T23:10:14.246Z,1.65
2022-08-05T23:12:43.175Z,1.80
2022-08-05T23:15:14.046Z,1.70
2022-08-05T23:18:01.492Z,2.17
2022-08-05T23:20:31.989Z,1.85
2022-08-05T23:23:00.280Z,1.60
2022-08-05T23:25:53.524Z,2.08
2022-08-05T23:28:19.541Z,1.60
2022-08-05T23:30:53.250Z,2.00
2022-08-05T23:33:26.504Z,1.88
2022-08-05T23:36:13.802Z,1.63
2022-08-05T23:38:42.829Z,1.60
2022-08-05T23:41:11.956Z,1.60
2022-08-05T23:44:05.521Z,2.00
2022-08-05T23:46:30.746Z,1.70
2022-08-05T23:48:59.817Z,1.75
2022-08-05T23:51:53.587Z,1.77
2022-08-05T23:54:25.648Z,1.50
2022-08-05T23:56:55.996Z,1.60
